sensor_id;sensor_type;location;lat;lon;timestamp;pressure;altitude;pressure_sealevel;temperature;humidity
60375;BME280;70244;48.792;9.172;2024-02-23T05:17:12;95710.75;;;16.77;76.40
60375;BME280;70244;48.792;9.172;2024-02-23T05:19:43;95712.91;;;16.85;76.19
60375;BME280;70244;48.792;9.172;2024-02-23T05:21:15;95713.23;;;16.70;76.67
60375;BME280;70244;48.792;9.172;2024-02-23T05:23:45;95720.64;;;16.69;76.74
60375;BME280;70244;48.792;9.172;2024-02-23T05:26:15;95716.88;;;16.66;76.84
60375;BME280;70244;48.792;9.172;2024-02-23T05:28:46;95721.21;;;16.66;76.85
60375;BME280;70244;48.792;9.172;2024-02-23T05:31:17;95730.13;;;16.65;76.97
60375;BME280;70244;48.792;9.172;2024-02-23T05:33:47;95733.17;;;16.79;76.45
60375;BME280;70244;48.792;9.172;2024-02-23T05:36:18;95731.97;;;16.86;76.29
60375;BME280;70244;48.792;9.172;2024-02-23T05:38:49;95737.39;;;16.88;76.25
60375;BME280;70244;48.792;9.172;2024-02-23T05:41:19;95737.27;;;16.91;76.28
60375;BME280;70244;48.792;9.172;2024-02-23T05:43:50;95745.24;;;16.78;76.78
60375;BME280;70244;48.792;9.172;2024-02-23T05:46:21;95746.84;;;16.67;77.35
60375;BME280;70244;48.792;9.172;2024-02-23T05:48:52;95744.12;;;16.73;77.27
60375;BME280;70244;48.792;9.172;2024-02-23T05:51:22;95747.53;;;17.14;76.21
60375;BME280;70244;48.792;9.172;2024-02-23T05:53:53;95753.97;;;17.30;75.95
60375;BME280;70244;48.792;9.172;2024-02-23T05:56:24;95754.87;;;17.63;75.18
60375;BME280;70244;48.792;9.172;2024-02-23T05:58:54;95752.42;;;17.49;75.63
60375;BME280;70244;48.792;9.172;2024-02-23T06:01:25;95752.49;;;17.60;75.39
60375;BME280;70244;48.792;9.172;2024-02-23T06:03:56;95747.88;;;17.60;75.48
60375;BME280;70244;48.792;9.172;2024-02-23T06:06:27;95752.98;;;17.62;75.50
60375;BME280;70244;48.792;9.172;2024-02-23T06:08:57;95758.51;;;17.67;75.45
60375;BME280;70244;48.792;9.172;2024-02-23T06:11:28;95757.27;;;17.86;74.96
60375;BME280;70244;48.792;9.172;2024-02-23T06:13:59;95764.82;;;17.83;74.85
60375;BME280;70244;48.792;9.172;2024-02-23T06:16:29;95777.71;;;18.06;74.51
60375;BME280;70244;48.792;9.172;2024-02-23T06:19:00;95778.62;;;18.22;73.89
60375;BME280;70244;48.792;9.172;2024-02-23T06:21:31;95784.69;;;18.24;73.66
60375;BME280;70244;48.792;9.172;2024-02-23T06:24:01;95793.74;;;18.19;74.17
60375;BME280;70244;48.792;9.172;2024-02-23T06:26:32;95793.43;;;18.34;74.09
60375;BME280;70244;48.792;9.172;2024-02-23T06:29:03;95790.78;;;18.37;73.99
60375;BME280;70244;48.792;9.172;2024-02-23T06:31:34;95784.76;;;18.40;73.79
60375;BME280;70244;48.792;9.172;2024-02-23T06:34:04;95781.52;;;18.37;73.86
60375;BME280;70244;48.792;9.172;2024-02-23T06:36:34;95782.57;;;18.33;73.88
60375;BME280;70244;48.792;9.172;2024-02-23T06:39:05;95776.47;;;18.44;73.53
60375;BME280;70244;48.792;9.172;2024-02-23T06:41:35;95774.94;;;18.55;73.14
60375;BME280;70244;48.792;9.172;2024-02-23T06:44:06;95766.75;;;18.49;73.07
60375;BME280;70244;48.792;9.172;2024-02-23T06:46:37;95768.10;;;18.64;72.73
60375;BME280;70244;48.792;9.172;2024-02-23T06:49:07;95769.81;;;18.49;72.99
60375;BME280;70244;48.792;9.172;2024-02-23T06:51:38;95764.81;;;18.34;73.26
60375;BME280;70244;48.792;9.172;2024-02-23T06:54:09;95770.03;;;18.23;73.57
60375;BME280;70244;48.792;9.172;2024-02-23T06:56:39;95771.48;;;18.45;72.65
60375;BME280;70244;48.792;9.172;2024-02-23T06:59:10;95774.84;;;18.44;72.15
60375;BME280;70244;48.792;9.172;2024-02-23T07:01:49;95773.84;;;18.45;69.99
60375;BME280;70244;48.792;9.172;2024-02-23T07:04:11;95769.74;;;18.23;71.20
60375;BME280;70244;48.792;9.172;2024-02-23T07:06:42;95775.04;;;18.11;71.28
60375;BME280;70244;48.792;9.172;2024-02-23T07:09:13;95777.76;;;18.27;70.87
60375;BME280;70244;48.792;9.172;2024-02-23T07:11:43;95778.48;;;18.09;71.39
60375;BME280;70244;48.792;9.172;2024-02-23T07:14:14;95775.18;;;18.07;71.41
60375;BME280;70244;48.792;9.172;2024-02-23T07:16:45;95776.07;;;18.09;71.39
60375;BME280;70244;48.792;9.172;2024-02-23T07:19:15;95776.68;;;18.05;71.64
60375;BME280;70244;48.792;9.172;2024-02-23T07:21:46;95784.56;;;18.09;71.55
60375;BME280;70244;48.792;9.172;2024-02-23T07:24:16;95788.42;;;18.03;71.79
60375;BME280;70244;48.792;9.172;2024-02-23T07:26:47;95792.88;;;17.98;72.01
60375;BME280;70244;48.792;9.172;2024-02-23T07:29:18;95797.35;;;17.98;72.44
60375;BME280;70244;48.792;9.172;2024-02-23T07:31:48;95795.04;;;17.91;72.93
60375;BME280;70244;48.792;9.172;2024-02-23T07:34:19;95792.28;;;17.81;73.07
60375;BME280;70244;48.792;9.172;2024-02-23T07:36:51;95792.88;;;17.84;73.14
60375;BME280;70244;48.792;9.172;2024-02-23T07:39:21;95787.99;;;17.83;73.21
60375;BME280;70244;48.792;9.172;2024-02-23T07:41:50;95782.75;;;17.76;73.43
60375;BME280;70244;48.792;9.172;2024-02-23T07:44:21;95783.37;;;17.79;73.34
60375;BME280;70244;48.792;9.172;2024-02-23T07:46:51;95782.11;;;17.86;73.17
60375;BME280;70244;48.792;9.172;2024-02-23T07:49:21;95782.43;;;17.82;73.30
60375;BME280;70244;48.792;9.172;2024-02-23T07:51:52;95781.17;;;17.82;73.56
60375;BME280;70244;48.792;9.172;2024-02-23T07:54:23;95782.65;;;17.84;73.86
60375;BME280;70244;48.792;9.172;2024-02-23T07:56:53;95786.56;;;17.89;73.69
60375;BME280;70244;48.792;9.172;2024-02-23T07:59:24;95794.79;;;17.99;73.57
60375;BME280;70244;48.792;9.172;2024-02-23T08:01:55;95795.99;;;17.87;73.61
60375;BME280;70244;48.792;9.172;2024-02-23T08:04:25;95801.97;;;17.72;74.46
60375;BME280;70244;48.792;9.172;2024-02-23T08:06:56;95803.28;;;17.78;74.06
60375;BME280;70244;48.792;9.172;2024-02-23T08:09:26;95809.37;;;17.74;73.88
60375;BME280;70244;48.792;9.172;2024-02-23T08:11:57;95805.31;;;17.73;73.72
60375;BME280;70244;48.792;9.172;2024-02-23T08:14:28;95797.36;;;17.74;73.93
60375;BME280;70244;48.792;9.172;2024-02-23T08:16:59;95790.67;;;17.71;74.47
60375;BME280;70244;48.792;9.172;2024-02-23T08:19:29;95790.31;;;17.67;74.09
60375;BME280;70244;48.792;9.172;2024-02-23T08:22:00;95792.18;;;17.59;74.15
60375;BME280;70244;48.792;9.172;2024-02-23T08:24:30;95790.72;;;17.72;73.77
60375;BME280;70244;48.792;9.172;2024-02-23T08:27:01;95791.63;;;17.61;73.94
60375;BME280;70244;48.792;9.172;2024-02-23T08:29:32;95790.22;;;17.61;73.91
60375;BME280;70244;48.792;9.172;2024-02-23T08:32:03;95793.52;;;17.55;73.96
60375;BME280;70244;48.792;9.172;2024-02-23T08:34:33;95794.51;;;17.46;74.12
60375;BME280;70244;48.792;9.172;2024-02-23T08:37:04;95787.83;;;17.47;74.03
60375;BME280;70244;48.792;9.172;2024-02-23T08:39:35;95784.61;;;17.48;73.99
60375;BME280;70244;48.792;9.172;2024-02-23T08:42:05;95789.20;;;17.58;73.66
60375;BME280;70244;48.792;9.172;2024-02-23T08:44:36;95796.94;;;17.45;73.97
60375;BME280;70244;48.792;9.172;2024-02-23T08:47:07;95794.17;;;17.36;74.28
60375;BME280;70244;48.792;9.172;2024-02-23T08:49:37;95800.63;;;17.43;74.36
60375;BME280;70244;48.792;9.172;2024-02-23T08:52:08;95807.76;;;17.45;74.89
60375;BME280;70244;48.792;9.172;2024-02-23T08:54:39;95807.25;;;17.22;76.46
60375;BME280;70244;48.792;9.172;2024-02-23T08:57:09;95804.38;;;17.41;76.87
60375;BME280;70244;48.792;9.172;2024-02-23T08:59:40;95801.45;;;17.55;78.89
60375;BME280;70244;48.792;9.172;2024-02-23T09:02:11;95804.60;;;17.62;78.15
60375;BME280;70244;48.792;9.172;2024-02-23T09:04:42;95804.90;;;17.41;77.73
60375;BME280;70244;48.792;9.172;2024-02-23T09:07:12;95801.86;;;17.42;78.36
60375;BME280;70244;48.792;9.172;2024-02-23T09:09:42;95807.01;;;17.37;77.61
60375;BME280;70244;48.792;9.172;2024-02-23T09:12:12;95809.41;;;17.34;77.65
60375;BME280;70244;48.792;9.172;2024-02-23T09:14:43;95812.05;;;17.27;77.87
60375;BME280;70244;48.792;9.172;2024-02-23T09:17:13;95811.03;;;17.25;78.06
60375;BME280;70244;48.792;9.172;2024-02-23T09:19:44;95810.15;;;17.09;78.15
60375;BME280;70244;48.792;9.172;2024-02-23T09:22:14;95809.00;;;17.13;77.94
60375;BME280;70244;48.792;9.172;2024-02-23T09:24:45;95806.15;;;17.15;77.66
60375;BME280;70244;48.792;9.172;2024-02-23T09:27:16;95817.77;;;17.05;77.60
60375;BME280;70244;48.792;9.172;2024-02-23T09:29:46;95822.91;;;17.11;77.31
60375;BME280;70244;48.792;9.172;2024-02-23T09:32:17;95810.54;;;17.23;76.72
60375;BME280;70244;48.792;9.172;2024-02-23T09:34:48;95813.22;;;17.21;76.85
60375;BME280;70244;48.792;9.172;2024-02-23T09:37:18;95820.43;;;17.06;76.99
60375;BME280;70244;48.792;9.172;2024-02-23T09:39:49;95820.60;;;17.02;77.12
60375;BME280;70244;48.792;9.172;2024-02-23T09:42:22;95821.97;;;17.04;77.12
60375;BME280;70244;48.792;9.172;2024-02-23T09:44:57;95823.43;;;17.08;76.88
60375;BME280;70244;48.792;9.172;2024-02-23T09:47:21;95826.76;;;16.92;77.15
60375;BME280;70244;48.792;9.172;2024-02-23T09:49:53;95824.37;;;17.00;77.09
60375;BME280;70244;48.792;9.172;2024-02-23T09:52:23;95820.27;;;16.97;76.80
60375;BME280;70244;48.792;9.172;2024-02-23T09:54:53;95816.16;;;16.87;76.71
60375;BME280;70244;48.792;9.172;2024-02-23T09:57:24;95819.24;;;17.06;76.78
60375;BME280;70244;48.792;9.172;2024-02-23T09:59:55;95822.54;;;17.41;75.75
60375;BME280;70244;48.792;9.172;2024-02-23T10:02:25;95821.84;;;17.36;76.31
60375;BME280;70244;48.792;9.172;2024-02-23T10:04:56;95822.79;;;17.60;75.37
60375;BME280;70244;48.792;9.172;2024-02-23T10:07:27;95822.56;;;17.48;74.40
60375;BME280;70244;48.792;9.172;2024-02-23T10:09:58;95821.82;;;17.41;74.15
60375;BME280;70244;48.792;9.172;2024-02-23T10:12:28;95819.97;;;17.22;74.85
60375;BME280;70244;48.792;9.172;2024-02-23T10:14:59;95817.02;;;17.28;74.82
60375;BME280;70244;48.792;9.172;2024-02-23T10:17:30;95823.97;;;17.22;75.03
60375;BME280;70244;48.792;9.172;2024-02-23T10:20:00;95832.51;;;17.06;75.55
60375;BME280;70244;48.792;9.172;2024-02-23T10:22:30;95833.12;;;17.19;74.97
60375;BME280;70244;48.792;9.172;2024-02-23T10:25:01;95836.99;;;17.07;75.35
60375;BME280;70244;48.792;9.172;2024-02-23T10:27:32;95835.86;;;17.11;75.48
60375;BME280;70244;48.792;9.172;2024-02-23T10:30:03;95835.15;;;17.18;75.49
60375;BME280;70244;48.792;9.172;2024-02-23T10:32:34;95836.33;;;17.18;75.50
60375;BME280;70244;48.792;9.172;2024-02-23T10:35:10;95838.61;;;17.09;75.86
60375;BME280;70244;48.792;9.172;2024-02-23T10:37:34;95836.52;;;16.87;77.30
60375;BME280;70244;48.792;9.172;2024-02-23T10:40:07;95831.01;;;17.25;77.67
60375;BME280;70244;48.792;9.172;2024-02-23T10:42:38;95826.56;;;17.16;79.67
60375;BME280;70244;48.792;9.172;2024-02-23T10:45:07;95824.46;;;17.21;81.61
60375;BME280;70244;48.792;9.172;2024-02-23T10:47:37;95826.84;;;17.24;80.68
60375;BME280;70244;48.792;9.172;2024-02-23T10:50:09;95830.47;;;17.25;80.79
60375;BME280;70244;48.792;9.172;2024-02-23T10:52:40;95825.68;;;17.04;81.44
60375;BME280;70244;48.792;9.172;2024-02-23T10:55:10;95823.88;;;17.29;80.77
60375;BME280;70244;48.792;9.172;2024-02-23T10:57:40;95822.73;;;17.69;78.84
60375;BME280;70244;48.792;9.172;2024-02-23T11:00:12;95817.18;;;17.67;77.10
60375;BME280;70244;48.792;9.172;2024-02-23T11:02:44;95814.88;;;18.70;72.52
60375;BME280;70244;48.792;9.172;2024-02-23T11:05:12;95813.12;;;18.07;73.48
60375;BME280;70244;48.792;9.172;2024-02-23T11:07:42;95813.36;;;17.66;74.15
60375;BME280;70244;48.792;9.172;2024-02-23T11:10:13;95805.28;;;17.50;73.84
60375;BME280;70244;48.792;9.172;2024-02-23T11:12:44;95803.13;;;17.22;75.02
60375;BME280;70244;48.792;9.172;2024-02-23T11:17:49;95803.32;;;17.39;75.20
60375;BME280;70244;48.792;9.172;2024-02-23T11:20:15;95799.01;;;17.39;75.05
60375;BME280;70244;48.792;9.172;2024-02-23T11:22:51;95800.82;;;17.25;75.50
60375;BME280;70244;48.792;9.172;2024-02-23T11:25:17;95797.35;;;17.24;75.87
60375;BME280;70244;48.792;9.172;2024-02-23T11:27:49;95793.93;;;17.04;76.75
60375;BME280;70244;48.792;9.172;2024-02-23T11:30:18;95796.59;;;17.30;76.16
60375;BME280;70244;48.792;9.172;2024-02-23T11:32:48;95797.00;;;17.58;76.89
60375;BME280;70244;48.792;9.172;2024-02-23T11:35:19;95800.60;;;17.25;78.10
60375;BME280;70244;48.792;9.172;2024-02-23T11:37:52;95796.04;;;17.51;76.62
60375;BME280;70244;48.792;9.172;2024-02-23T11:40:20;95788.82;;;17.99;71.72
60375;BME280;70244;48.792;9.172;2024-02-23T11:42:51;95788.07;;;19.37;70.64
60375;BME280;70244;48.792;9.172;2024-02-23T11:45:22;95794.94;;;19.22;71.08
60375;BME280;70244;48.792;9.172;2024-02-23T11:47:52;95796.06;;;19.60;71.49
60375;BME280;70244;48.792;9.172;2024-02-23T11:50:23;95787.80;;;19.86;71.13
60375;BME280;70244;48.792;9.172;2024-02-23T11:52:54;95785.21;;;19.77;70.54
60375;BME280;70244;48.792;9.172;2024-02-23T11:55:26;95791.96;;;19.53;70.65
60375;BME280;70244;48.792;9.172;2024-02-23T11:57:55;95784.85;;;19.96;68.79
60375;BME280;70244;48.792;9.172;2024-02-23T12:00:26;95782.25;;;19.29;71.19
60375;BME280;70244;48.792;9.172;2024-02-23T12:02:56;95776.97;;;19.95;71.09
60375;BME280;70244;48.792;9.172;2024-02-23T12:05:27;95780.88;;;19.37;71.38
60375;BME280;70244;48.792;9.172;2024-02-23T12:07:58;95777.94;;;19.43;71.29
60375;BME280;70244;48.792;9.172;2024-02-23T12:10:29;95779.29;;;19.52;70.60
60375;BME280;70244;48.792;9.172;2024-02-23T12:12:59;95779.17;;;19.46;70.50
60375;BME280;70244;48.792;9.172;2024-02-23T12:15:30;95780.85;;;19.54;70.12
60375;BME280;70244;48.792;9.172;2024-02-23T12:18:00;95775.56;;;19.62;70.27
60375;BME280;70244;48.792;9.172;2024-02-23T12:20:33;95764.01;;;19.02;72.31
60375;BME280;70244;48.792;9.172;2024-02-23T12:23:01;95762.56;;;19.21;71.56
60375;BME280;70244;48.792;9.172;2024-02-23T12:25:32;95760.55;;;19.48;70.91
60375;BME280;70244;48.792;9.172;2024-02-23T12:28:03;95757.80;;;19.66;70.19
60375;BME280;70244;48.792;9.172;2024-02-23T12:30:34;95755.32;;;19.59;70.19
60375;BME280;70244;48.792;9.172;2024-02-23T12:33:04;95764.09;;;19.46;70.53
60375;BME280;70244;48.792;9.172;2024-02-23T12:35:35;95753.78;;;19.56;70.17
60375;BME280;70244;48.792;9.172;2024-02-23T12:38:05;95762.28;;;19.44;70.22
60375;BME280;70244;48.792;9.172;2024-02-23T12:40:36;95758.76;;;19.21;70.61
60375;BME280;70244;48.792;9.172;2024-02-23T12:43:07;95762.11;;;19.17;70.70
60375;BME280;70244;48.792;9.172;2024-02-23T12:45:37;95761.45;;;19.39;70.21
60375;BME280;70244;48.792;9.172;2024-02-23T12:48:08;95754.70;;;19.29;70.50
60375;BME280;70244;48.792;9.172;2024-02-23T12:50:39;95757.38;;;19.42;70.13
60375;BME280;70244;48.792;9.172;2024-02-23T12:53:09;95765.76;;;19.42;70.18
60375;BME280;70244;48.792;9.172;2024-02-23T12:55:40;95756.44;;;19.43;70.19
60375;BME280;70244;48.792;9.172;2024-02-23T12:58:10;95756.48;;;19.39;70.40
60375;BME280;70244;48.792;9.172;2024-02-23T13:00:41;95757.50;;;19.24;70.70
60375;BME280;70244;48.792;9.172;2024-02-23T13:03:12;95757.38;;;19.58;69.84
60375;BME280;70244;48.792;9.172;2024-02-23T13:05:43;95759.35;;;19.46;70.15
60375;BME280;70244;48.792;9.172;2024-02-23T13:08:13;95765.48;;;19.42;70.27
60375;BME280;70244;48.792;9.172;2024-02-23T13:10:44;95762.12;;;19.39;70.42
60375;BME280;70244;48.792;9.172;2024-02-23T13:13:15;95764.29;;;19.42;70.38
60375;BME280;70244;48.792;9.172;2024-02-23T13:15:46;95759.43;;;19.60;69.95
60375;BME280;70244;48.792;9.172;2024-02-23T13:18:16;95760.48;;;19.46;70.33
60375;BME280;70244;48.792;9.172;2024-02-23T13:20:47;95760.44;;;19.53;70.30
60375;BME280;70244;48.792;9.172;2024-02-23T13:23:18;95755.45;;;19.71;69.82
60375;BME280;70244;48.792;9.172;2024-02-23T13:25:48;95761.93;;;19.49;70.38
60375;BME280;70244;48.792;9.172;2024-02-23T13:28:19;95767.63;;;19.30;70.91
60375;BME280;70244;48.792;9.172;2024-02-23T13:30:49;95764.35;;;19.16;71.36
60375;BME280;70244;48.792;9.172;2024-02-23T13:33:20;95766.68;;;19.36;70.65
60375;BME280;70244;48.792;9.172;2024-02-23T13:35:51;95763.13;;;19.07;71.52
60375;BME280;70244;48.792;9.172;2024-02-23T13:38:22;95753.81;;;18.91;72.17
60375;BME280;70244;48.792;9.172;2024-02-23T13:40:52;95748.65;;;19.00;71.87
60375;BME280;70244;48.792;9.172;2024-02-23T13:43:23;95747.03;;;18.95;72.13
60375;BME280;70244;48.792;9.172;2024-02-23T13:45:54;95745.48;;;18.57;73.90
60375;BME280;70244;48.792;9.172;2024-02-23T13:48:24;95741.08;;;19.05;73.40
60375;BME280;70244;48.792;9.172;2024-02-23T13:50:55;95738.33;;;19.10;73.54
60375;BME280;70244;48.792;9.172;2024-02-23T13:53:26;95736.27;;;20.07;70.85
60375;BME280;70244;48.792;9.172;2024-02-23T13:55:57;95727.18;;;20.69;69.20
60375;BME280;70244;48.792;9.172;2024-02-23T13:58:27;95721.57;;;20.86;68.61
60375;BME280;70244;48.792;9.172;2024-02-23T14:00:58;95719.57;;;21.21;67.19
60375;BME280;70244;48.792;9.172;2024-02-23T14:03:28;95716.93;;;20.88;68.44
60375;BME280;70244;48.792;9.172;2024-02-23T14:05:59;95710.15;;;20.92;68.42
60375;BME280;70244;48.792;9.172;2024-02-23T14:08:30;95705.90;;;21.21;67.68
60375;BME280;70244;48.792;9.172;2024-02-23T14:11:01;95703.77;;;21.74;66.23
60375;BME280;70244;48.792;9.172;2024-02-23T14:13:32;95698.13;;;21.86;65.98
60375;BME280;70244;48.792;9.172;2024-02-23T14:16:02;95694.54;;;21.99;65.37
60375;BME280;70244;48.792;9.172;2024-02-23T14:18:33;95692.94;;;22.09;64.92
60375;BME280;70244;48.792;9.172;2024-02-23T14:21:04;95699.74;;;22.30;64.13
60375;BME280;70244;48.792;9.172;2024-02-23T14:23:34;95692.39;;;22.30;64.01
60375;BME280;70244;48.792;9.172;2024-02-23T14:26:04;95693.19;;;22.23;64.05
60375;BME280;70244;48.792;9.172;2024-02-23T14:28:35;95692.34;;;22.24;63.85
60375;BME280;70244;48.792;9.172;2024-02-23T14:31:06;95696.38;;;22.38;63.35
60375;BME280;70244;48.792;9.172;2024-02-23T14:33:36;95693.19;;;22.34;63.44
60375;BME280;70244;48.792;9.172;2024-02-23T14:36:07;95695.52;;;21.90;64.55
60375;BME280;70244;48.792;9.172;2024-02-23T14:38:38;95694.04;;;22.33;63.35
60375;BME280;70244;48.792;9.172;2024-02-23T14:41:09;95696.68;;;22.20;63.65
60375;BME280;70244;48.792;9.172;2024-02-23T14:43:39;95701.23;;;22.44;62.99
60375;BME280;70244;48.792;9.172;2024-02-23T14:46:10;95692.92;;;22.27;63.31
60375;BME280;70244;48.792;9.172;2024-02-23T14:48:41;95690.65;;;22.37;63.02
60375;BME280;70244;48.792;9.172;2024-02-23T14:51:11;95683.02;;;22.32;63.10
60375;BME280;70244;48.792;9.172;2024-02-23T14:53:42;95679.95;;;22.28;63.16
60375;BME280;70244;48.792;9.172;2024-02-23T14:56:13;95682.37;;;22.53;62.46
60375;BME280;70244;48.792;9.172;2024-02-23T14:58:43;95680.25;;;22.38;62.72
60375;BME280;70244;48.792;9.172;2024-02-23T15:01:14;95677.65;;;22.31;62.90
60375;BME280;70244;48.792;9.172;2024-02-23T15:03:45;95679.93;;;22.22;63.17
60375;BME280;70244;48.792;9.172;2024-02-23T15:06:15;95686.51;;;22.24;62.98
60375;BME280;70244;48.792;9.172;2024-02-23T15:08:46;95689.14;;;22.32;62.77
60375;BME280;70244;48.792;9.172;2024-02-23T15:11:17;95691.90;;;22.43;62.37
60375;BME280;70244;48.792;9.172;2024-02-23T15:13:47;95689.43;;;21.83;63.95
60375;BME280;70244;48.792;9.172;2024-02-23T15:16:18;95685.35;;;22.26;63.85
60375;BME280;70244;48.792;9.172;2024-02-23T15:18:49;95676.65;;;22.09;63.87
60375;BME280;70244;48.792;9.172;2024-02-23T15:21:20;95668.69;;;22.34;63.74
60375;BME280;70244;48.792;9.172;2024-02-23T15:23:50;95664.33;;;22.27;63.77
60375;BME280;70244;48.792;9.172;2024-02-23T15:26:21;95667.65;;;22.92;63.96
60375;BME280;70244;48.792;9.172;2024-02-23T15:28:51;95671.03;;;23.29;67.77
60375;BME280;70244;48.792;9.172;2024-02-23T15:31:21;95675.20;;;23.29;67.45
60375;BME280;70244;48.792;9.172;2024-02-23T15:33:52;95671.05;;;23.28;66.77
60375;BME280;70244;48.792;9.172;2024-02-23T15:36:22;95669.95;;;23.41;67.13
60375;BME280;70244;48.792;9.172;2024-02-23T15:38:53;95668.76;;;23.33;65.31
60375;BME280;70244;48.792;9.172;2024-02-23T15:41:24;95671.07;;;23.18;72.51
60375;BME280;70244;48.792;9.172;2024-02-23T15:43:54;95667.64;;;22.50;70.89
60375;BME280;70244;48.792;9.172;2024-02-23T15:46:25;95673.14;;;22.75;69.14
60375;BME280;70244;48.792;9.172;2024-02-23T15:48:55;95677.64;;;22.86;70.37
60375;BME280;70244;48.792;9.172;2024-02-23T15:51:26;95677.28;;;22.83;70.38
60375;BME280;70244;48.792;9.172;2024-02-23T15:53:56;95678.53;;;22.40;71.46
60375;BME280;70244;48.792;9.172;2024-02-23T15:56:27;95678.48;;;22.16;71.16
60375;BME280;70244;48.792;9.172;2024-02-23T15:58:58;95679.44;;;22.79;68.73
60375;BME280;70244;48.792;9.172;2024-02-23T16:01:28;95683.32;;;22.99;67.62
60375;BME280;70244;48.792;9.172;2024-02-23T16:03:59;95688.77;;;22.65;68.12
60375;BME280;70244;48.792;9.172;2024-02-23T16:06:29;95685.78;;;22.74;67.55
60375;BME280;70244;48.792;9.172;2024-02-23T16:09:00;95681.45;;;22.13;68.76
60375;BME280;70244;48.792;9.172;2024-02-23T16:11:31;95674.15;;;22.03;68.91
60375;BME280;70244;48.792;9.172;2024-02-23T16:14:01;95669.37;;;22.44;67.34
60375;BME280;70244;48.792;9.172;2024-02-23T16:16:32;95671.66;;;22.66;66.42
60375;BME280;70244;48.792;9.172;2024-02-23T16:19:03;95671.69;;;22.67;65.97
60375;BME280;70244;48.792;9.172;2024-02-23T16:21:34;95672.77;;;22.47;66.06
60375;BME280;70244;48.792;9.172;2024-02-23T16:24:05;95671.20;;;22.57;65.46
60375;BME280;70244;48.792;9.172;2024-02-23T16:26:35;95670.18;;;22.60;65.17
60375;BME280;70244;48.792;9.172;2024-02-23T16:29:06;95668.18;;;22.47;65.19
60375;BME280;70244;48.792;9.172;2024-02-23T16:31:37;95665.09;;;22.41;65.32
60375;BME280;70244;48.792;9.172;2024-02-23T16:34:07;95660.11;;;22.27;65.48
60375;BME280;70244;48.792;9.172;2024-02-23T16:36:37;95657.37;;;22.01;66.05
60375;BME280;70244;48.792;9.172;2024-02-23T16:39:08;95656.41;;;21.99;65.87
60375;BME280;70244;48.792;9.172;2024-02-23T16:41:39;95660.69;;;22.06;65.52
60375;BME280;70244;48.792;9.172;2024-02-23T16:44:09;95661.26;;;22.00;65.62
60375;BME280;70244;48.792;9.172;2024-02-23T16:46:40;95656.40;;;21.85;66.02
60375;BME280;70244;48.792;9.172;2024-02-23T16:49:11;95659.38;;;21.78;66.03
60375;BME280;70244;48.792;9.172;2024-02-23T16:51:41;95662.73;;;21.57;66.40
60375;BME280;70244;48.792;9.172;2024-02-23T16:54:12;95666.21;;;21.77;65.92
60375;BME280;70244;48.792;9.172;2024-02-23T16:56:43;95665.21;;;21.51;66.49
60375;BME280;70244;48.792;9.172;2024-02-23T16:59:13;95666.10;;;21.57;66.14
60375;BME280;70244;48.792;9.172;2024-02-23T17:01:44;95668.30;;;21.50;66.26
60375;BME280;70244;48.792;9.172;2024-02-23T17:04:14;95678.15;;;21.72;65.71
60375;BME280;70244;48.792;9.172;2024-02-23T17:06:45;95679.80;;;21.51;66.03
60375;BME280;70244;48.792;9.172;2024-02-23T17:09:16;95679.20;;;21.53;65.99
60375;BME280;70244;48.792;9.172;2024-02-23T17:11:46;95683.87;;;21.51;65.96
60375;BME280;70244;48.792;9.172;2024-02-23T17:14:17;95690.51;;;21.32;66.43
60375;BME280;70244;48.792;9.172;2024-02-23T17:16:48;95690.10;;;21.27;66.51
60375;BME280;70244;48.792;9.172;2024-02-23T17:19:18;95693.05;;;21.18;66.75
60375;BME280;70244;48.792;9.172;2024-02-23T17:21:49;95695.40;;;21.32;66.28
60375;BME280;70244;48.792;9.172;2024-02-23T17:24:19;95693.56;;;20.93;67.30
60375;BME280;70244;48.792;9.172;2024-02-23T17:26:50;95692.60;;;20.85;67.52
60375;BME280;70244;48.792;9.172;2024-02-23T17:29:21;95686.76;;;20.85;67.59
60375;BME280;70244;48.792;9.172;2024-02-23T17:31:51;95680.84;;;20.85;67.59
60375;BME280;70244;48.792;9.172;2024-02-23T17:34:22;95683.82;;;20.80;67.63
60375;BME280;70244;48.792;9.172;2024-02-23T17:36:53;95690.02;;;20.86;67.52
60375;BME280;70244;48.792;9.172;2024-02-23T17:39:24;95697.56;;;20.90;67.32
60375;BME280;70244;48.792;9.172;2024-02-23T17:41:54;95698.46;;;20.69;67.84
60375;BME280;70244;48.792;9.172;2024-02-23T17:44:25;95696.39;;;20.83;67.45
60375;BME280;70244;48.792;9.172;2024-02-23T17:46:56;95703.05;;;20.84;67.45
60375;BME280;70244;48.792;9.172;2024-02-23T17:49:26;95707.20;;;20.79;67.66
60375;BME280;70244;48.792;9.172;2024-02-23T17:51:57;95706.67;;;20.85;67.40
60375;BME280;70244;48.792;9.172;2024-02-23T17:54:28;95712.85;;;20.78;67.54
60375;BME280;70244;48.792;9.172;2024-02-23T17:56:59;95714.35;;;20.85;67.27
60375;BME280;70244;48.792;9.172;2024-02-23T17:59:29;95717.32;;;20.68;67.69
60375;BME280;70244;48.792;9.172;2024-02-23T18:02:00;95721.85;;;20.98;66.95
60375;BME280;70244;48.792;9.172;2024-02-23T18:04:31;95725.11;;;20.69;67.70
60375;BME280;70244;48.792;9.172;2024-02-23T18:07:01;95733.59;;;20.43;68.29
60375;BME280;70244;48.792;9.172;2024-02-23T18:09:32;95733.17;;;20.18;69.01
60375;BME280;70244;48.792;9.172;2024-02-23T18:12:03;95737.79;;;20.13;69.24
60375;BME280;70244;48.792;9.172;2024-02-23T18:14:35;95735.18;;;19.90;69.94
60375;BME280;70244;48.792;9.172;2024-02-23T18:17:04;95741.59;;;20.09;69.21
60375;BME280;70244;48.792;9.172;2024-02-23T18:19:35;95739.77;;;19.68;71.05
60375;BME280;70244;48.792;9.172;2024-02-23T18:22:06;95738.98;;;19.65;71.20
60375;BME280;70244;48.792;9.172;2024-02-23T18:24:36;95741.37;;;20.49;70.24
60375;BME280;70244;48.792;9.172;2024-02-23T18:27:07;95733.22;;;20.24;70.71
60375;BME280;70244;48.792;9.172;2024-02-23T18:29:38;95734.04;;;20.08;72.08
60375;BME280;70244;48.792;9.172;2024-02-23T18:32:08;95735.38;;;20.30;72.63
60375;BME280;70244;48.792;9.172;2024-02-23T18:34:39;95737.70;;;20.74;72.27